createdAt,value
2022-12-29T00:02:07.203Z,0.77
2022-12-29T00:04:36.886Z,1.00
2022-12-29T00:07:05.509Z,0.70
2022-12-29T00:09:34.347Z,0.60
2022-12-29T00:12:03.470Z,0.80
2022-12-29T00:14:49.435Z,0.90
2022-12-29T00:17:17.653Z,0.70
2022-12-29T00:20:05.632Z,0.90
2022-12-29T00:22:51.027Z,0.85
2022-12-29T00:25:36.507Z,0.70
2022-12-29T00:28:22.406Z,0.80
2022-12-29T00:31:07.829Z,0.80
2022-12-29T00:33:53.905Z,0.70
2022-12-29T00:36:27.891Z,0.80
2022-12-29T00:39:17.339Z,0.80
2022-12-29T00:42:03.970Z,0.80
2022-12-29T00:44:32.273Z,0.70
2022-12-29T00:47:03.429Z,0.80
2022-12-29T00:49:34.080Z,0.60
2022-12-29T00:52:07.713Z,0.60
2022-12-29T00:54:37.508Z,0.50
2022-12-29T00:57:07.297Z,0.70
2022-12-29T00:59:37.432Z,0.77
2022-12-29T01:02:06.214Z,0.60
2022-12-29T01:04:34.921Z,0.60
2022-12-29T01:07:05.011Z,0.60
2022-12-29T01:09:53.812Z,0.50
2022-12-29T01:12:41.456Z,0.40
2022-12-29T01:15:14.363Z,0.50
2022-12-29T01:17:43.755Z,0.60
2022-12-29T01:20:13.379Z,0.60
2022-12-29T01:22:44.787Z,0.52
2022-12-29T01:25:13.200Z,0.60
2022-12-29T01:27:42.467Z,0.50
2022-12-29T01:30:11.661Z,0.60
2022-12-29T01:32:39.908Z,0.50
2022-12-29T01:35:08.778Z,0.60
2022-12-29T01:37:36.981Z,0.60
2022-12-29T01:40:07.690Z,0.50
2022-12-29T01:42:35.892Z,0.60
2022-12-29T01:45:05.961Z,0.50
2022-12-29T01:47:38.627Z,0.50
2022-12-29T01:50:10.888Z,0.50
2022-12-29T01:52:44.525Z,0.50
2022-12-29T01:55:14.993Z,0.50
2022-12-29T01:57:47.810Z,0.60
2022-12-29T02:00:17.940Z,0.50
2022-12-29T02:02:52.705Z,0.50
2022-12-29T02:05:27.216Z,0.60
2022-12-29T02:07:56.043Z,0.60
2022-12-29T02:10:28.099Z,0.50
2022-12-29T02:12:57.805Z,0.75
2022-12-29T02:15:33.613Z,0.60
2022-12-29T02:18:14.448Z,0.70
2022-12-29T02:21:15.169Z,0.70
2022-12-29T02:24:18.607Z,0.70
2022-12-29T02:27:13.137Z,0.50
2022-12-29T02:30:05.073Z,0.70
2022-12-29T02:32:41.605Z,0.60
2022-12-29T02:35:17.404Z,0.60
2022-12-29T02:37:56.897Z,0.80
2022-12-29T02:40:33.065Z,1.08
2022-12-29T02:43:06.916Z,0.90
2022-12-29T02:45:41.103Z,0.70
2022-12-29T02:48:17.221Z,0.57
2022-12-29T02:50:55.232Z,0.65
2022-12-29T02:53:41.047Z,0.60
2022-12-29T02:56:09.227Z,0.60
2022-12-29T02:58:37.917Z,0.50
2022-12-29T03:01:23.987Z,0.60
2022-12-29T03:04:17.430Z,0.45
2022-12-29T03:06:56.527Z,0.50
2022-12-29T03:09:35.792Z,0.50
2022-12-29T03:12:13.381Z,0.57
2022-12-29T03:15:11.590Z,0.50
2022-12-29T03:17:49.204Z,0.80
2022-12-29T03:20:24.547Z,0.60
2022-12-29T03:23:02.532Z,0.80
2022-12-29T03:25:36.568Z,0.40
2022-12-29T03:28:12.906Z,0.60
2022-12-29T03:30:47.698Z,0.70
2022-12-29T03:33:22.587Z,0.50
2022-12-29T03:35:56.251Z,0.60
2022-12-29T03:38:31.624Z,0.90
2022-12-29T03:41:02.762Z,0.68
2022-12-29T03:43:32.090Z,0.63
2022-12-29T03:46:00.680Z,0.60
2022-12-29T03:48:28.915Z,0.90
2022-12-29T03:50:59.654Z,0.60
2022-12-29T03:53:27.848Z,0.70
2022-12-29T03:55:56.195Z,0.90
2022-12-29T03:58:25.183Z,0.73
2022-12-29T04:01:12.287Z,0.60
2022-12-29T04:03:41.313Z,0.43
2022-12-29T04:06:11.141Z,0.60
2022-12-29T04:08:50.714Z,0.60
2022-12-29T04:11:18.926Z,0.60
2022-12-29T04:13:47.567Z,0.60
2022-12-29T04:16:20.357Z,0.80
2022-12-29T04:18:49.205Z,0.90
2022-12-29T04:21:19.208Z,0.70
2022-12-29T04:23:48.262Z,0.60
2022-12-29T04:26:18.644Z,0.60
2022-12-29T04:28:55.388Z,0.50
2022-12-29T04:31:46.641Z,0.65
2022-12-29T04:34:15.295Z,0.70
2022-12-29T04:36:45.718Z,0.60
2022-12-29T04:39:14.916Z,0.50
2022-12-29T04:41:43.926Z,0.60
2022-12-29T04:44:17.948Z,0.75
2022-12-29T04:47:15.685Z,0.60
2022-12-29T04:50:10.295Z,0.60
2022-12-29T04:52:57.225Z,0.60
2022-12-29T04:55:25.488Z,0.50
2022-12-29T04:57:53.689Z,0.50
2022-12-29T05:00:22.177Z,0.60
2022-12-29T05:02:50.714Z,0.60
2022-12-29T05:05:19.768Z,0.60
2022-12-29T05:07:51.114Z,0.57
2022-12-29T05:10:21.103Z,0.60
2022-12-29T05:12:53.488Z,0.55
2022-12-29T05:15:22.325Z,0.60
2022-12-29T05:17:50.579Z,1.00
2022-12-29T05:20:19.919Z,1.10
2022-12-29T05:22:48.203Z,1.10
2022-12-29T05:25:16.787Z,1.00
2022-12-29T05:28:08.110Z,0.80
2022-12-29T05:30:51.051Z,0.50
2022-12-29T05:33:21.017Z,0.60
2022-12-29T05:35:51.400Z,0.80
2022-12-29T05:38:20.832Z,0.70
2022-12-29T05:40:49.066Z,0.60
2022-12-29T05:43:49.602Z,0.80
2022-12-29T05:46:31.806Z,0.70
2022-12-29T05:49:26.440Z,0.70
2022-12-29T05:51:59.343Z,0.50
2022-12-29T05:54:27.734Z,0.63
2022-12-29T05:56:56.125Z,0.60
2022-12-29T05:59:25.935Z,0.60
2022-12-29T06:01:55.445Z,0.55
2022-12-29T06:04:24.303Z,0.60
2022-12-29T06:06:52.490Z,0.70
2022-12-29T06:09:26.562Z,0.57
2022-12-29T06:11:56.154Z,0.60
2022-12-29T06:14:25.989Z,0.50
2022-12-29T06:16:54.191Z,0.50
2022-12-29T06:19:23.418Z,0.60
2022-12-29T06:21:52.322Z,0.55
2022-12-29T06:24:21.061Z,0.50
2022-12-29T06:26:49.323Z,0.60
2022-12-29T06:29:19.003Z,0.60
2022-12-29T06:31:50.370Z,0.70
2022-12-29T06:34:18.831Z,0.50
2022-12-29T06:36:47.791Z,0.57
2022-12-29T06:39:16.564Z,0.80
2022-12-29T06:41:54.350Z,0.60
2022-12-29T06:44:46.255Z,0.70
2022-12-29T06:47:15.862Z,0.70
2022-12-29T06:49:44.083Z,0.80
2022-12-29T06:52:13.267Z,0.73
2022-12-29T06:54:41.764Z,0.93
2022-12-29T06:57:10.057Z,0.80
2022-12-29T06:59:38.346Z,0.80
2022-12-29T07:02:07.207Z,0.70
2022-12-29T07:04:36.888Z,1.23
2022-12-29T07:07:05.438Z,0.60
2022-12-29T07:09:33.767Z,1.03
2022-12-29T07:12:02.048Z,0.70
2022-12-29T07:14:30.238Z,0.73
2022-12-29T07:16:58.663Z,1.20
2022-12-29T07:19:26.946Z,0.80
2022-12-29T07:21:58.079Z,0.70
2022-12-29T07:24:26.634Z,1.10
2022-12-29T07:26:54.945Z,0.70
2022-12-29T07:29:23.307Z,0.70
2022-12-29T07:31:51.569Z,0.90
2022-12-29T07:34:19.851Z,0.80
2022-12-29T07:36:48.048Z,0.80
2022-12-29T07:39:17.645Z,0.70
2022-12-29T07:41:45.841Z,0.80
2022-12-29T07:44:18.968Z,0.70
2022-12-29T07:47:10.201Z,1.10
2022-12-29T07:49:38.413Z,0.80
2022-12-29T07:52:06.795Z,0.80
2022-12-29T07:54:36.386Z,0.80
2022-12-29T07:57:04.834Z,0.80
2022-12-29T07:59:33.028Z,0.70
2022-12-29T08:02:01.388Z,0.70
2022-12-29T08:04:29.614Z,6.50
2022-12-29T08:06:57.865Z,1.00
2022-12-29T08:09:26.149Z,0.60
2022-12-29T08:11:56.200Z,0.85
2022-12-29T08:14:24.675Z,0.60
2022-12-29T08:16:52.867Z,0.70
2022-12-29T08:19:21.124Z,0.90
2022-12-29T08:21:51.096Z,0.60
2022-12-29T08:24:19.906Z,0.93
2022-12-29T08:26:48.141Z,0.77
2022-12-29T08:29:17.823Z,0.60
2022-12-29T08:31:46.426Z,0.70
2022-12-29T08:34:14.731Z,0.80
2022-12-29T08:36:42.960Z,0.80
2022-12-29T08:39:11.923Z,1.30
2022-12-29T08:41:40.461Z,0.60
2022-12-29T08:44:08.696Z,0.95
2022-12-29T08:46:38.409Z,0.70
2022-12-29T08:49:06.707Z,0.80
2022-12-29T08:51:34.962Z,0.90
2022-12-29T08:54:03.166Z,1.00
2022-12-29T08:56:31.427Z,0.70
2022-12-29T08:59:01.635Z,1.00
2022-12-29T09:01:32.551Z,0.88
2022-12-29T09:04:18.351Z,1.10
2022-12-29T09:06:47.178Z,0.80
2022-12-29T09:09:15.544Z,1.00
2022-12-29T09:11:44.305Z,0.90
2022-12-29T09:14:13.089Z,0.75
2022-12-29T09:16:59.749Z,1.00
2022-12-29T09:19:29.353Z,0.82
2022-12-29T09:21:57.913Z,0.98
2022-12-29T09:24:26.154Z,0.70
2022-12-29T09:26:54.680Z,1.37
2022-12-29T09:29:22.990Z,1.00
2022-12-29T09:31:51.260Z,0.87
2022-12-29T09:34:19.559Z,0.80
2022-12-29T09:36:49.180Z,0.90
2022-12-29T09:39:17.497Z,1.00
2022-12-29T09:41:54.193Z,1.30
2022-12-29T09:44:29.116Z,1.10
2022-12-29T09:46:59.342Z,1.38
2022-12-29T09:49:33.163Z,1.30
2022-12-29T09:52:08.547Z,0.85
2022-12-29T09:54:50.817Z,0.90
2022-12-29T09:57:27.774Z,0.80
2022-12-29T10:00:01.722Z,1.40
2022-12-29T10:02:36.555Z,0.80
2022-12-29T10:05:15.114Z,0.90
2022-12-29T10:07:50.848Z,1.10
2022-12-29T10:10:29.184Z,1.30
2022-12-29T10:13:12.854Z,1.10
2022-12-29T10:15:52.035Z,1.40
2022-12-29T10:18:42.603Z,0.98
2022-12-29T10:21:19.715Z,0.82
2022-12-29T10:23:52.939Z,0.90
2022-12-29T10:26:23.901Z,1.27
2022-12-29T10:28:57.944Z,1.00
2022-12-29T10:31:29.943Z,0.88
2022-12-29T10:34:03.372Z,0.85
2022-12-29T10:36:37.865Z,0.80
2022-12-29T10:39:17.444Z,0.80
2022-12-29T10:41:51.809Z,1.00
2022-12-29T10:44:21.887Z,1.30
2022-12-29T10:46:57.702Z,1.10
2022-12-29T10:49:28.823Z,1.40
2022-12-29T10:52:00.575Z,0.90
2022-12-29T10:54:35.745Z,0.82
2022-12-29T10:57:08.122Z,1.10
2022-12-29T10:59:38.891Z,1.00
2022-12-29T11:02:24.688Z,1.00
2022-12-29T11:05:03.056Z,0.93
2022-12-29T11:07:32.211Z,0.90
2022-12-29T11:10:20.383Z,1.10
2022-12-29T11:13:00.135Z,1.10
2022-12-29T11:15:28.541Z,0.90
2022-12-29T11:18:00.483Z,0.90
2022-12-29T11:20:33.161Z,0.90
2022-12-29T11:23:01.788Z,1.10
2022-12-29T11:25:31.684Z,0.95
2022-12-29T11:28:02.990Z,0.90
2022-12-29T11:30:33.426Z,1.40
2022-12-29T11:33:05.393Z,1.00
2022-12-29T11:35:37.060Z,0.82
2022-12-29T11:38:20.718Z,1.15
2022-12-29T11:40:50.892Z,1.00
2022-12-29T11:43:27.900Z,1.00
2022-12-29T11:45:57.619Z,0.70
2022-12-29T11:48:30.868Z,0.80
2022-12-29T11:51:01.369Z,0.87
2022-12-29T11:53:35.673Z,1.00
2022-12-29T11:56:10.251Z,0.73
2022-12-29T11:58:40.229Z,1.02
2022-12-29T12:01:15.884Z,0.97
2022-12-29T12:03:49.342Z,1.00
2022-12-29T12:06:22.052Z,1.30
2022-12-29T12:08:56.348Z,1.42
2022-12-29T12:11:34.282Z,1.50
2022-12-29T12:14:09.322Z,0.90
2022-12-29T12:17:01.280Z,1.30
2022-12-29T12:19:37.024Z,1.27
2022-12-29T12:22:12.895Z,1.08
2022-12-29T12:24:46.584Z,1.00
2022-12-29T12:27:22.505Z,1.00
2022-12-29T12:29:58.814Z,1.40
2022-12-29T12:32:38.849Z,1.20
2022-12-29T12:35:07.616Z,1.10
2022-12-29T12:38:07.234Z,1.00
2022-12-29T12:41:01.656Z,1.08
2022-12-29T12:43:51.730Z,1.27
2022-12-29T12:46:50.955Z,1.20
2022-12-29T12:49:37.092Z,1.20
2022-12-29T12:52:11.297Z,0.90
2022-12-29T12:55:10.130Z,1.15
2022-12-29T12:57:50.705Z,1.80
2022-12-29T13:00:24.192Z,1.10
2022-12-29T13:03:07.132Z,1.25
2022-12-29T13:05:52.665Z,1.13
2022-12-29T13:08:34.111Z,0.80
2022-12-29T13:11:12.187Z,1.00
2022-12-29T13:14:02.241Z,1.30
2022-12-29T13:16:38.708Z,1.10
2022-12-29T13:19:13.651Z,1.80
2022-12-29T13:22:00.152Z,1.23
2022-12-29T13:24:38.547Z,1.23
2022-12-29T13:27:15.916Z,1.50
2022-12-29T13:29:48.775Z,1.13
2022-12-29T13:32:28.316Z,1.30
2022-12-29T13:35:11.229Z,1.10
2022-12-29T13:37:52.927Z,1.10
2022-12-29T13:40:26.556Z,1.23
2022-12-29T13:42:56.858Z,0.90
2022-12-29T13:45:28.622Z,1.20
2022-12-29T13:48:06.283Z,1.10
2022-12-29T13:50:39.379Z,1.13
2022-12-29T13:53:18.094Z,1.17
2022-12-29T13:55:53.181Z,1.10
2022-12-29T13:58:30.214Z,1.30
2022-12-29T14:01:03.196Z,1.42
2022-12-29T14:03:51.730Z,1.30
2022-12-29T14:06:25.448Z,2.13
2022-12-29T14:08:56.807Z,1.98
2022-12-29T14:11:32.383Z,1.48
2022-12-29T14:14:02.361Z,1.42
2022-12-29T14:16:34.140Z,1.20
2022-12-29T14:19:16.792Z,1.27
2022-12-29T14:21:54.030Z,0.80
2022-12-29T14:24:47.220Z,1.00
2022-12-29T14:27:53.381Z,1.15
2022-12-29T14:30:48.611Z,1.25
2022-12-29T14:33:17.504Z,1.40
2022-12-29T14:35:50.764Z,0.90
2022-12-29T14:38:30.840Z,0.80
2022-12-29T14:41:31.087Z,1.30
2022-12-29T14:44:03.279Z,0.80
2022-12-29T14:46:51.266Z,1.00
2022-12-29T14:49:24.098Z,1.15
2022-12-29T14:51:56.883Z,1.20
2022-12-29T14:54:49.393Z,1.27
2022-12-29T14:57:34.483Z,1.20
2022-12-29T15:00:20.925Z,1.13
2022-12-29T15:02:52.456Z,1.50
2022-12-29T15:05:38.871Z,1.50
2022-12-29T15:08:09.817Z,1.13
2022-12-29T15:10:43.580Z,1.20
2022-12-29T15:13:19.210Z,1.30
2022-12-29T15:15:47.723Z,1.17
2022-12-29T15:18:27.828Z,1.20
2022-12-29T15:20:58.038Z,1.30
2022-12-29T15:23:28.379Z,1.20
2022-12-29T15:25:59.880Z,1.00
2022-12-29T15:28:30.187Z,1.00
2022-12-29T15:31:04.433Z,1.10
2022-12-29T15:33:32.902Z,1.10
2022-12-29T15:36:11.884Z,0.93
2022-12-29T15:38:42.157Z,0.80
2022-12-29T15:41:28.113Z,1.10
2022-12-29T15:44:11.609Z,0.70
2022-12-29T15:46:40.161Z,1.00
2022-12-29T15:49:10.410Z,0.80
2022-12-29T15:51:41.476Z,1.13
2022-12-29T15:54:19.660Z,1.10
2022-12-29T15:56:48.587Z,1.00
2022-12-29T15:59:26.461Z,1.05
2022-12-29T16:01:56.955Z,0.90
2022-12-29T16:04:26.210Z,1.00
2022-12-29T16:07:00.199Z,1.00
2022-12-29T16:09:35.910Z,1.00
2022-12-29T16:12:07.433Z,0.90
2022-12-29T16:14:43.986Z,0.80
2022-12-29T16:17:20.282Z,0.85
2022-12-29T16:19:52.825Z,1.02
2022-12-29T16:22:28.444Z,1.10
2022-12-29T16:25:04.469Z,1.05
2022-12-29T16:27:38.178Z,0.90
2022-12-29T16:30:09.212Z,0.95
2022-12-29T16:32:37.458Z,1.50
2022-12-29T16:35:14.413Z,0.90
2022-12-29T16:37:42.928Z,1.27
2022-12-29T16:40:33.216Z,0.88
2022-12-29T16:43:02.714Z,1.10
2022-12-29T16:46:08.213Z,0.90
2022-12-29T16:48:38.670Z,0.98
2022-12-29T16:51:13.040Z,1.00
2022-12-29T16:53:43.760Z,1.38
2022-12-29T16:56:17.223Z,0.80
2022-12-29T16:58:49.404Z,1.48
2022-12-29T17:01:20.421Z,0.93
2022-12-29T17:03:52.082Z,1.50
2022-12-29T17:06:21.907Z,1.20
2022-12-29T17:08:51.103Z,1.20
2022-12-29T17:11:45.666Z,1.75
2022-12-29T17:14:25.335Z,1.38
2022-12-29T17:16:54.310Z,1.63
2022-12-29T17:19:28.821Z,1.30
2022-12-29T17:21:57.085Z,1.60
2022-12-29T17:24:25.295Z,2.15
2022-12-29T17:26:56.854Z,1.50
2022-12-29T17:29:32.930Z,2.60
2022-12-29T17:32:02.727Z,1.40
2022-12-29T17:34:31.120Z,1.90
2022-12-29T17:36:59.301Z,1.50
2022-12-29T17:39:27.503Z,1.25
2022-12-29T17:41:57.156Z,1.20
2022-12-29T17:44:26.853Z,0.90
2022-12-29T17:46:55.015Z,1.00
2022-12-29T17:49:23.342Z,0.90
2022-12-29T17:51:51.625Z,0.90
2022-12-29T17:54:22.768Z,1.10
2022-12-29T17:56:51.231Z,0.90
2022-12-29T17:59:21.456Z,0.93
2022-12-29T18:01:50.634Z,0.90
2022-12-29T18:04:21.375Z,1.10
2022-12-29T18:06:49.579Z,0.98
2022-12-29T18:09:18.379Z,1.17
2022-12-29T18:11:47.194Z,0.98
2022-12-29T18:14:17.247Z,1.20
2022-12-29T18:16:46.907Z,1.10
2022-12-29T18:19:15.096Z,1.10
2022-12-29T18:21:44.599Z,1.30
2022-12-29T18:24:16.069Z,0.80
2022-12-29T18:26:44.256Z,0.90
2022-12-29T18:29:12.640Z,1.00
2022-12-29T18:31:40.849Z,1.17
2022-12-29T18:34:15.460Z,1.00
2022-12-29T18:36:43.773Z,1.20
2022-12-29T18:39:13.069Z,1.30
2022-12-29T18:41:42.036Z,1.10
2022-12-29T18:44:13.780Z,1.20
2022-12-29T18:46:42.086Z,1.63
2022-12-29T18:49:11.711Z,1.52
2022-12-29T18:51:39.932Z,1.30
2022-12-29T18:54:11.103Z,0.90
2022-12-29T18:56:39.345Z,1.00
2022-12-29T18:59:07.483Z,1.05
2022-12-29T19:01:35.942Z,1.30
2022-12-29T19:04:04.227Z,0.90
2022-12-29T19:06:34.790Z,0.90
2022-12-29T19:09:03.020Z,0.98
2022-12-29T19:11:31.210Z,1.10
2022-12-29T19:13:59.447Z,1.10
2022-12-29T19:16:27.942Z,0.80
2022-12-29T19:19:09.074Z,1.35
2022-12-29T19:21:39.365Z,2.10
2022-12-29T19:24:08.090Z,7.93
2022-12-29T19:26:38.040Z,6.00
2022-12-29T19:29:07.390Z,3.90
2022-12-29T19:31:36.086Z,7.45
2022-12-29T19:34:04.680Z,3.90
2022-12-29T19:36:33.232Z,1.85
2022-12-29T19:39:02.887Z,2.30
2022-12-29T19:41:31.115Z,1.30
2022-12-29T19:43:59.321Z,1.60
2022-12-29T19:46:27.870Z,1.23
2022-12-29T19:48:58.770Z,1.60
2022-12-29T19:51:27.732Z,2.53
2022-12-29T19:53:58.453Z,2.70
2022-12-29T19:56:28.090Z,1.90
2022-12-29T19:58:57.441Z,1.83
2022-12-29T20:01:26.205Z,1.60
2022-12-29T20:03:54.636Z,2.13
2022-12-29T20:06:23.059Z,2.10
2022-12-29T20:08:51.294Z,2.00
2022-12-29T20:11:20.551Z,1.63
2022-12-29T20:13:50.143Z,1.95
2022-12-29T20:16:20.359Z,1.83
2022-12-29T20:18:49.583Z,1.50
2022-12-29T20:21:20.119Z,1.58
2022-12-29T20:23:49.318Z,1.83
2022-12-29T20:26:20.126Z,1.88
2022-12-29T20:28:50.667Z,1.73
2022-12-29T20:31:21.181Z,1.67
2022-12-29T20:33:49.539Z,2.10
2022-12-29T20:36:19.991Z,1.33
2022-12-29T20:38:49.395Z,6.67
2022-12-29T20:41:18.377Z,1.90
2022-12-29T20:43:47.008Z,3.30
2022-12-29T20:46:20.764Z,2.80
2022-12-29T20:48:50.423Z,1.95
2022-12-29T20:51:18.799Z,2.60
2022-12-29T20:53:47.050Z,2.00
2022-12-29T20:56:17.932Z,2.23
2022-12-29T20:59:17.606Z,2.40
2022-12-29T21:01:36.039Z,2.22
2022-12-29T21:04:05.587Z,2.10
2022-12-29T21:06:34.416Z,5.03
2022-12-29T21:09:03.246Z,4.50
2022-12-29T21:11:31.718Z,7.28
2022-12-29T21:14:01.490Z,3.40
2022-12-29T21:16:30.518Z,2.83
2022-12-29T21:19:00.115Z,1.88
2022-12-29T21:21:28.425Z,2.00
2022-12-29T21:24:05.227Z,1.67
2022-12-29T21:26:34.956Z,1.43
2022-12-29T21:29:04.408Z,2.42
2022-12-29T21:31:35.897Z,1.95
2022-12-29T21:34:06.528Z,1.60
2022-12-29T21:36:35.213Z,1.50
2022-12-29T21:39:04.314Z,1.73
2022-12-29T21:41:32.844Z,1.33
2022-12-29T21:44:19.648Z,1.40
2022-12-29T21:46:48.836Z,1.90
2022-12-29T21:49:18.364Z,1.57
2022-12-29T21:51:51.237Z,1.15
2022-12-29T21:54:38.106Z,1.58
2022-12-29T21:57:07.483Z,1.73
2022-12-29T21:59:52.929Z,1.60
2022-12-29T22:02:42.097Z,1.40
2022-12-29T22:05:31.460Z,1.80
2022-12-29T22:08:16.977Z,1.75
2022-12-29T22:11:04.244Z,1.10
2022-12-29T22:13:33.428Z,1.40
2022-12-29T22:16:04.270Z,1.88
2022-12-29T22:18:32.539Z,1.10
2022-12-29T22:21:04.647Z,2.10
2022-12-29T22:23:32.874Z,1.40
2022-12-29T22:26:05.090Z,1.80
2022-12-29T22:28:33.407Z,1.40
2022-12-29T22:31:01.741Z,1.53
2022-12-29T22:33:29.960Z,1.58
2022-12-29T22:35:58.201Z,1.50
2022-12-29T22:38:27.813Z,1.13
2022-12-29T22:41:00.388Z,2.00
2022-12-29T22:43:30.598Z,1.50
2022-12-29T22:46:04.284Z,1.85
2022-12-29T22:48:33.469Z,2.07
2022-12-29T22:51:01.724Z,1.50
2022-12-29T22:53:31.852Z,1.75
2022-12-29T22:56:08.193Z,1.75
2022-12-29T22:58:36.745Z,1.73
2022-12-29T23:01:05.653Z,1.48
2022-12-29T23:03:34.017Z,1.40
2022-12-29T23:06:04.080Z,1.63
2022-12-29T23:08:35.792Z,1.52
2022-12-29T23:11:04.816Z,2.05
2022-12-29T23:13:33.503Z,1.40
2022-12-29T23:16:03.254Z,1.60
2022-12-29T23:18:32.028Z,1.70
2022-12-29T23:21:00.348Z,1.53
2022-12-29T23:23:51.498Z,1.50
2022-12-29T23:26:23.239Z,1.63
2022-12-29T23:28:57.887Z,1.48
2022-12-29T23:31:29.018Z,2.10
2022-12-29T23:33:57.555Z,1.60
2022-12-29T23:36:26.398Z,1.90
2022-12-29T23:38:54.882Z,1.40
2022-12-29T23:41:24.620Z,1.80
2022-12-29T23:43:52.973Z,1.53
2022-12-29T23:46:23.020Z,2.17
2022-12-29T23:48:51.835Z,1.80
2022-12-29T23:51:20.275Z,2.22
2022-12-29T23:53:49.050Z,2.30
2022-12-29T23:56:19.346Z,1.73
2022-12-29T23:58:49.590Z,1.70
